Tiempo atmosférico en la estación meteorológica de Calanda, Teruel (459 m.)



Fecha
DESCASC
Temp. máxima en grados centígrados (hora)
DESCASC
Temp. mínima en grados centígrados (hora)
DESCASC
Temp. media en grados centígrados
DESCASC
Racha de viento máxima en m/sg (hora)
DESCASC
Velocidad máxima media en intervalos de 10 minutos(hora)
DESCASC
Precipitaciones diarias en mm
DESCASC
Precipitaciones de 00:00 a 06:00 en mm
DESCASC
Precipitaciones de 06:00 a 12:00 en mm
DESCASC
Precipitaciones de 12:00 a 18:00 en mm
DESCASC
Precipitaciones de 18:00 a 24:00 en mm
DESCASC
17-03-2019 21.1 (11:30) 7.3 (23:59) 14.2 14.44 (12:20) 9.17 (12:10) 0 0 0 0 0
16-03-2019 24.6 (17:00) 8.1 (07:00) 16.4 7.78 (02:50) 5.56 (01:10) 0 0 0 0 0
15-03-2019 20.9 (16:40) 4.3 (07:40) 12.6 5.83 (00:10) 3.89 (00:10) 0 0 0 0 0
14-03-2019 16.2 (17:10) 5.9 (00:00) 11.1 12.5 (12:30) 8.89 (05:30) 0 0 0 0 0
13-03-2019 13.4 (15:50) 7 (23:59) 10.2 17.78 (18:50) 11.39 (17:40) 0 0 0 0 0
12-03-2019 20.9 (15:40) 4.7 (00:00) 12.8 5.83 (01:20) 4.17 (02:00) 0 0 0 0 0
11-03-2019 17.1 (16:40) 6.2 (00:00) 11.7 14.72 (08:50) 9.17 (08:50) 0 0 0 0 0
10-03-2019 21.8 (15:00) 9.3 (00:00) 15.5 10.83 (15:50) 6.67 (15:40) 0 0 0 0 0
09-03-2019 20.5 (17:10) 4.9 (00:00) 12.7 8.89 (12:20) 5.28 (07:10) 0 0 0 0 0
08-03-2019 15.4 (17:00) 5 (00:00) 10.2 10 (13:20) 5.28 (06:40) 0 0 0 0 0
07-03-2019 15.3 (17:00) 6.3 (00:00) 10.8 12.78 (03:40) 7.22 (10:00) 0 0 0 0 0
06-03-2019 20.4 (15:30) 10.1 (00:00) 15.3 19.72 (18:50) 11.39 (16:10) 0 0 0 0 0
05-03-2019 18.6 (15:40) 8.4 (00:00) 13.5 8.33 (12:10) 3.89 (19:00) 0 0 0 0 0
04-03-2019 20.6 (12:50) 10.6 (00:00) 15.6 12.22 (15:20) 7.5 (15:20) 0 0 0 0 0
03-03-2019 23.1 (16:20) 9.1 (00:00) 16.1 8.06 (05:30) 5.83 (05:30) 0 0 0 0 0
02-03-2019 20.1 (15:50) 9.6 (00:00) 14.9 13.33 (11:20) 8.06 (11:00) 0 0 0 0 0
01-03-2019 19 (16:50) 6.2 (00:00) 12.6 7.5 (17:20) 4.44 (17:10) 0 0 0 0 0
28-02-2019 20 (16:10) 8.6 (00:00) 14.3 9.17 (15:40) 6.67 (00:30) 0 0 0 0 0
27-02-2019 22.7 (15:10) 6.6 (00:00) 14.7 7.5 (23:10) 5.83 (23:00) 0 0 0 0 0
26-02-2019 20.2 (16:40) 5.8 (00:00) 13 6.39 (23:40) 4.72 (03:10) 0 0 0 0 0
25-02-2019 17.6 (16:40) 5.5 (00:00) 11.6 6.11 (01:50) 4.72 (02:30) 0 0 0 0 0
24-02-2019 17.7 (16:40) 5.6 (00:00) 11.7 5.83 (23:20) 3.89 (23:20) 0 0 0 0 0
23-02-2019 21.1 (15:50) 7.7 (00:00) 14.4 8.89 (03:00) 6.94 (02:40) 0 0 0 0 0
22-02-2019 19.9 (16:10) 5.3 (00:00) 12.6 7.78 (23:40) 6.11 (23:40) 0 0 0 0 0
21-02-2019 16.3 (16:00) 3.4 (08:10) 9.8 6.11 (07:10) 4.72 (07:10) 0 0 0 0 0
20-02-2019 14.6 (16:20) 2.5 (08:00) 8.6 5.56 (00:50) 3.61 (23:30) 0 0 0 0 0

Gráficas

Temp. máximas Temp. mínimas Temp. medias Precipitaciones Rachas de viento máximas Velocidades máximas media en intervalos de 10 minutos

Datos horarios

Fecha y hora oficial Temperatura (ºC) Velocidad del viento (km/h) Dirección del viento Racha (km/h) Dirección de racha Precipitación (mm) Presión (hPa) Tendencia (hPa) Humedad (%)
2019-03-21 23:00:00 8 14 Sudoeste 19 Sudoeste 0 972.4 1.1 47
2019-03-21 22:00:00 9.2 8 Sur 14 Sur 0 972.2 1.3 43
2019-03-21 21:00:00 8.8 9 Sudoeste 12 Sudoeste 0 972.1 1.6 38
2019-03-21 20:00:00 11.1 4 Noroeste 14 Norte 0 971.3 0.7 32
2019-03-21 19:00:00 13.9 8 Norte 17 Norte 0 970.9 -0.2 25
2019-03-21 18:00:00 14.9 8 Norte 16 Norte 0 970.5 -1.1 24
2019-03-21 17:00:00 15.1 10 Norte 24 Nordeste 0 970.6 -1.9 23
2019-03-21 16:00:00 15.9 6 Este 24 Nordeste 0 971.1 -2.2 24
2019-03-21 15:00:00 15.6 9 Sudeste 22 Nordeste 0 971.6 -2.3 23
2019-03-21 14:00:00 14.6 7 Este 27 Norte 0 972.5 -1.7 25
2019-03-21 13:00:00 12.9 5 Norte 17 Noroeste 0 973.3 -0.9 31
2019-03-21 12:00:00 11.5 6 Norte 13 Nordeste 0 973.9 -0.3 37
2019-03-21 11:00:00 10.2 5 Noroeste 16 Sudoeste 0 974.2 0.5 42
2019-03-21 10:00:00 8.9 8 Sudoeste 18 Sudoeste 0 974.2 0.8 47
2019-03-21 09:00:00 5.9 14 Sudoeste 20 Sudoeste 0 974.2 1.2 56
2019-03-21 08:00:00 3.9 10 Sudoeste 16 Sudoeste 0 973.7 0.9 65
2019-03-21 07:00:00 2.8 11 Sudoeste 20 Sudoeste 0 973.4 0.6 64
2019-03-21 06:00:00 3.4 6 Sudoeste 16 Sudoeste 0 973 -0.3 62
2019-03-21 05:00:00 3.9 9 Sudoeste 15 Sudoeste 0 972.8 -0.7 60
2019-03-21 04:00:00 4.4 8 Sudoeste 17 Sudoeste 0 972.8 -1 58
2019-03-21 03:00:00 4.3 14 Sudoeste 20 Sudoeste 0 973.3 -0.5 57
2019-03-21 02:00:00 5.4 8 Sudoeste 18 Sudoeste 0 973.5 0.2 54
2019-03-21 01:00:00 5.2 9 Sudoeste 17 Sudoeste 0 973.8 1.1 49
2019-03-21 00:00:00 5.6 7 Oeste 11 Oeste 0 973.8 1.7 46
2019-03-20 23:00:00 8.4 7 Sudoeste 30 Oeste 0 973.3 1.9 43
2019-03-20 22:00:00 8.7 11 Sur 21 Sudoeste 0 972.7 1.6 47
2019-03-20 21:00:00 6.8 3 Sudoeste 8 Oeste 0 972.1 1.2 41
2019-03-20 20:00:00 10 0 Calma 6 Nordeste 0 971.4 0.4 34
2019-03-20 19:00:00 13.5 2 Este 8 Norte 0 971.1 -0.2 25
2019-03-20 18:00:00 14 5 Nordeste 15 Este 0 970.9 -0.9 26
2019-03-20 17:00:00 14.6 6 Nordeste 20 Norte 0 971 -1.3 24
2019-03-20 16:00:00 13.9 8 Norte 18 Nordeste 0 971.3 -1.7 24
2019-03-20 15:00:00 13.9 9 Nordeste 21 Norte 0 971.8 -1.5 26
2019-03-20 14:00:00 13.5 6 Este 22 Norte 0 972.3 -1.2 29
2019-03-20 13:00:00 11.8 10 Norte 23 Noroeste 0 973 -0.5 33
2019-03-20 12:00:00 11.3 12 Noroeste 24 Noroeste 0 973.3 0.1 42
2019-03-20 11:00:00 9.5 15 Noroeste 24 Norte 0 973.5 0.6 48
2019-03-20 10:00:00 8.7 5 Noroeste 15 Noroeste 0 973.5 1.2 51
2019-03-20 09:00:00 7 8 Sudoeste 14 Sudoeste 0 973.2 1.3 60
2019-03-20 08:00:00 2.3 7 Oeste 9 Oeste 0 972.9 1.4 80
2019-03-20 07:00:00 2.8 3 Oeste 7 Noroeste 0 972.3 0.8 71
2019-03-20 06:00:00 5 3 Oeste 21 Sudoeste 0 971.9 0 65
2019-03-20 05:00:00 5.2 12 Sudoeste 23 Sudoeste 0 971.5 -0.4 63
2019-03-20 04:00:00 4.8 14 Sudoeste 24 Sudoeste 0 971.5 -0.5 64
2019-03-20 03:00:00 4.9 12 Oeste 23 Oeste 0 971.9 -0.1 62
2019-03-20 02:00:00 5.6 14 Oeste 28 Oeste 0 971.9 0.4 59
2019-03-20 01:00:00 6.3 13 Oeste 23 Sudoeste 0 972 1 57
2019-03-20 00:00:00 6.7 12 Oeste 23 Oeste 0 972 1.9 55
2019-03-19 23:00:00 6.5 10 Sudoeste 30 Oeste 0 971.5 2.2 54
2019-03-19 22:00:00 7.6 15 Oeste 29 Oeste 0 971 2.5 51
2019-03-19 21:00:00 8.3 16 Oeste 32 Oeste 0 970.1 2.6 49
2019-03-19 20:00:00 9.4 20 Noroeste 41 Noroeste 0 969.3 2 41
2019-03-19 19:00:00 11.6 24 Noroeste 41 Noroeste 0 968.5 1.3 34
2019-03-19 18:00:00 13.3 23 Noroeste 32 Noroeste 0 967.5 -0.1 30
2019-03-19 17:00:00 13.4 20 Noroeste 35 Noroeste 0 967.3 -0.8 30
2019-03-19 16:00:00 14.5 16 Noroeste 32 Noroeste 0 967.2 -1.4 29
2019-03-19 15:00:00 13.3 18 Noroeste 37 Noroeste 0 967.6 -1.1 34
2019-03-19 14:00:00 13.3 21 Noroeste 39 Noroeste 0 968.1 -0.9 37
2019-03-19 13:00:00 11.6 20 Noroeste 35 Noroeste 0 968.6 -0.2 45
2019-03-19 12:00:00 10.4 21 Noroeste 34 Noroeste 0 968.7 0.1 49
2019-03-19 11:00:00 8.9 20 Noroeste 40 Noroeste 0 969 0.5 54
2019-03-19 10:00:00 7.9 19 Noroeste 41 Noroeste 0 968.8 0.5 58
2019-03-19 09:00:00 6.7 15 Noroeste 40 Noroeste 0 968.6 0.5 63
2019-03-19 08:00:00 5.7 5 Noroeste 31 Noroeste 0 968.5 0.1 65
2019-03-19 07:00:00 6.4 16 Noroeste 32 Noroeste 0 968.3 -0.1 64
2019-03-19 06:00:00 6.7 19 Noroeste 37 Noroeste 0 968.1 -0.8 62
2019-03-19 05:00:00 7 20 Noroeste 48 Oeste 0 968.4 -1 60
2019-03-19 04:00:00 7.5 30 Noroeste 46 Oeste 0 968.4 -1.3 55
2019-03-19 03:00:00 7.7 26 Oeste 44 Oeste 0 968.9 -1 54
2019-03-19 02:00:00 6.8 8 Sudoeste 27 Oeste 0 969.4 -0.6 53
2019-03-19 01:00:00 6.9 9 Oeste 26 Oeste 0 969.7 -0.2 49
2019-03-19 00:00:00 7.5 10 Oeste 28 Oeste 0 969.9 0.8 47
2019-03-18 23:00:00 8.3 14 Oeste 34 Oeste 0 970 1.3 45
2019-03-18 22:00:00 8.6 12 Oeste 37 Oeste 0 969.9 1.5 39
2019-03-18 21:00:00 9.4 16 Oeste 37 Noroeste 0 969.1 1.4 42
2019-03-18 20:00:00 10.3 18 Oeste 35 Noroeste 0 968.7 1.2 39
2019-03-18 19:00:00 11.7 24 Noroeste 37 Noroeste 0 968.4 0.8 31
2019-03-18 18:00:00 13.4 23 Noroeste 40 Noroeste 0 967.7 -0.4 27
2019-03-18 17:00:00 14.2 19 Noroeste 36 Noroeste 0 967.5 -1.3 26
2019-03-18 16:00:00 14.2 21 Noroeste 33 Oeste 0 967.6 -1.9 28
2019-03-18 15:00:00 14 18 Noroeste 39 Oeste 0 968.1 -1.7 28
2019-03-18 14:00:00 13.3 16 Noroeste 35 Oeste 0 968.8 -1.1 30
2019-03-18 13:00:00 12 21 Noroeste 40 Noroeste 0 969.5 0 35
2019-03-18 12:00:00 10.6 21 Noroeste 38 Oeste 0 969.8 0.9 40
2019-03-18 11:00:00 9.2 19 Noroeste 38 Noroeste 0 969.9 1.5 47
2019-03-18 10:00:00 8.5 27 Noroeste 45 Oeste 0 969.5 1.5 49
2019-03-18 09:00:00 7.1 22 Oeste 43 Oeste 0 968.9 1.4 55
2019-03-18 08:00:00 5.5 20 Oeste 39 Oeste 0 968.4 1.1 58
2019-03-18 07:00:00 5.4 16 Oeste 43 Oeste 0 968 0.7 56
2019-03-18 06:00:00 6.1 21 Oeste 37 Oeste 0 967.5 -0.3 52
2019-03-18 05:00:00 5.7 13 Oeste 37 Oeste 0 967.3 -0.7 52
2019-03-18 04:00:00 5.6 17 Oeste 35 Oeste 0 967.3 -0.8 50
2019-03-18 03:00:00 5.6 17 Oeste 33 Sudoeste 0 967.8 -0.4 50
2019-03-18 02:00:00 5.7 17 Oeste 33 Oeste 0 968 0.1 52
2019-03-18 01:00:00 6.6 18 Oeste 37 Oeste 0 968.1 0.8 52
2019-03-18 00:00:00 7.3 22 Oeste 37 Oeste 0 968.2 2 52
2019-03-17 23:00:00 8.2 21 Oeste 41 Oeste 0 967.9 2.5 51
2019-03-17 22:00:00 9.1 22 Noroeste 39 Noroeste 0 967.3 2.8 48
2019-03-17 21:00:00 10 23 Oeste 43 Oeste 0 966.2 2.8 50
2019-03-17 20:00:00 11.2 21 Noroeste 42 Noroeste 0 965.4 2.8 47
2019-03-17 19:00:00 12.9 26 Noroeste 46 Noroeste 0 964.5 2.5 44
2019-03-17 18:00:00 14.9 24 Noroeste 45 Noroeste 0 963.4 1.6 42
2019-03-17 17:00:00 16.1 27 Noroeste 46 Noroeste 0 962.6 0.5 38
2019-03-17 16:00:00 18.2 25 Noroeste 42 Noroeste 0 962 -0.2 32
2019-03-17 15:00:00 19 26 Noroeste 41 Noroeste 0 961.8 -0.2 28
2019-03-17 14:00:00 18.9 22 Noroeste 49 Noroeste 0 962.1 0.4 28
2019-03-17 13:00:00 18.5 30 Noroeste 52 Noroeste 0 962.2 0.6 26
2019-03-17 12:00:00 19.5 30 Noroeste 47 Noroeste 0 962 0.8 24
2019-03-17 11:00:00 19.8 23 Oeste 36 Oeste 0 961.7 1.3 24
2019-03-17 10:00:00 18.7 22 Oeste 35 Sudoeste 0 961.6 1.5 25
2019-03-17 09:00:00 17.1 19 Sudoeste 30 Sudoeste 0 961.2 1.5 26
2019-03-17 08:00:00 16 20 Sudoeste 34 Sudoeste 0 960.4 0.7 25
2019-03-17 07:00:00 11.9 5 Sudoeste 26 Sudoeste 0 960.1 0.2 32
2019-03-17 06:00:00 16.2 17 Sudoeste 27 Sudoeste 0 959.7 -0.7 22
2019-03-17 05:00:00 14.5 19 Sudoeste 28 Sudoeste 0 959.7 -1.4 24
2019-03-17 04:00:00 15.1 19 Sudoeste 27 Sudoeste 0 959.9 -1.5 23
2019-03-17 03:00:00 15.3 13 Sudoeste 23 Sudoeste 0 960.4 -1.5 24
2019-03-17 02:00:00 15.2 14 Sudoeste 25 Sudoeste 0 961.1 -0.9 28
2019-03-17 01:00:00 16.1 15 Sudoeste 21 Sudoeste 0 961.4 -0.8 29
2019-03-17 00:00:00 17.2 14 Sudoeste 24 Sudoeste 0 961.9 0.2 28
2019-03-16 23:00:00 17.4 16 Sudoeste 27 Sudoeste 0 962 0.2 28
2019-03-16 22:00:00 18.1 18 Sudoeste 27 Sudoeste 0 962.2 0.1 30
2019-03-16 21:00:00 17.4 7 Sudoeste 18 Sur 0 961.7 -0.8 32
2019-03-16 20:00:00 17.2 2 Norte 8 Norte 0 961.8 -1.2 30
2019-03-16 19:00:00 22.4 5 Norte 18 Norte 0 962.1 -1.7 20
2019-03-16 18:00:00 24 12 Norte 21 Norte 0 962.5 -2.2 16
2019-03-16 17:00:00 24.6 8 Nordeste 18 Norte 0 963 -2.9 17
2019-03-16 16:00:00 23.6 9 Norte 17 Nordeste 0 963.8 -3.2 19
2019-03-16 15:00:00 23 7 Nordeste 15 Norte 0 964.7 -3 20
2019-03-16 14:00:00 20.9 9 Norte 17 Norte 0 965.9 -2.3 25
2019-03-16 13:00:00 19.7 8 Norte 15 Nordeste 0 967 -1.4 22
2019-03-16 12:00:00 18.9 9 Norte 14 Norte 0 967.7 -0.7 25
2019-03-16 11:00:00 18.9 4 Nordeste 10 Este 0 968.2 0.1 22
2019-03-16 10:00:00 16.5 4 Sudoeste 15 Sudoeste 0 968.4 0.1 24
2019-03-16 09:00:00 12.4 10 Sudoeste 21 Sudoeste 0 968.4 -0.2 31
2019-03-16 08:00:00 9.2 9 Sur 23 Sudoeste 0 968.1 -0.4 37
2019-03-16 07:00:00 8.2 16 Sudoeste 26 Sudoeste 0 968.3 -0.5 41
2019-03-16 06:00:00 9.3 14 Sudoeste 20 Sudoeste 0 968.6 -0.9 40
2019-03-16 05:00:00 9 16 Sudoeste 25 Sudoeste 0 968.5 -1.2 36
2019-03-16 04:00:00 10 17 Sudoeste 25 Sudoeste 0 968.8 -1.5 34
2019-03-16 03:00:00 10.6 14 Sudoeste 28 Sudoeste 0 969.5 -1.2 29
2019-03-16 02:00:00 11.3 9 Sudoeste 26 Sudoeste 0 969.7 -1.1 30
2019-03-16 01:00:00 11.6 19 Sudoeste 25 Sudoeste 0 970.3 -0.2 33
2019-03-16 00:00:00 11.6 8 Sudoeste 18 Sudoeste 0 970.7 0.4 38
2019-03-15 23:00:00 12.4 13 Sudoeste 18 Sudoeste 0 970.8 1 39
2019-03-15 22:00:00 11.2 8 Sudoeste 13 Sudoeste 0 970.5 1.2 41
2019-03-15 21:00:00 12.8 9 Sudoeste 13 Sudoeste 0 970.3 1.3 39
2019-03-15 20:00:00 14.2 7 Oeste 10 Oeste 0 969.8 0.6 42
2019-03-15 19:00:00 19.3 2 Nordeste 12 Noroeste 0 969.3 -0.1 31
2019-03-15 18:00:00 20.4 4 Oeste 18 Norte 0 969 -0.8 28
2019-03-15 17:00:00 20.5 11 Norte 18 Norte 0 969.2 -1.2 27
2019-03-15 16:00:00 20.1 6 Norte 20 Norte 0 969.4 -1.9 28
2019-03-15 15:00:00 19.4 11 Norte 20 Noroeste 0 969.8 -1.8 29
2019-03-15 14:00:00 18.2 9 Norte 21 Norte 0 970.4 -1.9 31
2019-03-15 13:00:00 16.2 9 Norte 17 Nordeste 0 971.3 -1.6 37
2019-03-15 12:00:00 14.8 4 Nordeste 9 Norte 0 971.6 -1.4 39
2019-03-15 11:00:00 12.8 4 Este 10 Sur 0 972.3 -0.6 44
2019-03-15 10:00:00 10.4 6 Sur 13 Sudoeste 0 972.9 0.2 50
2019-03-15 09:00:00 8.1 8 Sudoeste 16 Sudoeste 0 973 0.3 60
2019-03-15 08:00:00 5.4 8 Sudoeste 15 Sudoeste 0 972.9 0 71
2019-03-15 07:00:00 4.9 8 Sudoeste 16 Sudoeste 0 972.7 -0.4 73
2019-03-15 06:00:00 5 10 Sudoeste 15 Sudoeste 0 972.7 -1 70
2019-03-15 05:00:00 5.8 11 Sudoeste 18 Sudoeste 0 972.9 -1 67
2019-03-15 04:00:00 5.6 11 Sudoeste 14 Sudoeste 0 973.1 -0.5 68
2019-03-15 03:00:00 4.7 4 Sudoeste 10 Oeste 0 973.7 0.4 67
2019-03-15 02:00:00 5.3 4 Sudoeste 9 Sudoeste 0 973.9 0.7 64
2019-03-15 01:00:00 6.7 6 Oeste 21 Oeste 0 973.6 1.4 60
2019-03-15 00:00:00 7.6 8 Oeste 20 Noroeste 0 973.3 1.5 58
2019-03-14 23:00:00 8.9 7 Noroeste 26 Noroeste 0 973.2 2.1 54
2019-03-14 22:00:00 9.7 8 Noroeste 15 Noroeste 0 972.2 1.6 50
2019-03-14 21:00:00 10.3 8 Oeste 17 Oeste 0 971.8 1.4 46
2019-03-14 20:00:00 11.6 8 Oeste 20 Oeste 0 971.1 0.5 41
2019-03-14 19:00:00 13.8 12 Noroeste 32 Noroeste 0 970.6 -0.5 34
2019-03-14 18:00:00 15.2 23 Noroeste 37 Noroeste 0 970.4 -1.1 30
2019-03-14 17:00:00 15.9 23 Noroeste 39 Oeste 0 970.6 -1.8 28
2019-03-14 16:00:00 16 24 Noroeste 41 Oeste 0 971.1 -2.5 27
2019-03-14 15:00:00 15.1 24 Noroeste 41 Noroeste 0 971.5 -2.7 30
2019-03-14 14:00:00 14.3 25 Oeste 41 Oeste 0 972.4 -2.2 33
2019-03-14 13:00:00 13.3 27 Noroeste 45 Noroeste 0 973.6 -1.1 36
2019-03-14 12:00:00 12.3 26 Noroeste 44 Noroeste 0 974.2 -0.3 39
2019-03-14 11:00:00 11.4 21 Noroeste 40 Noroeste 0 974.6 0.5 41
2019-03-14 10:00:00 9.7 27 Oeste 45 Oeste 0 974.7 1.3 48
2019-03-14 09:00:00 8.2 23 Oeste 37 Oeste 0 974.5 1.1 54
2019-03-14 08:00:00 6.4 14 Oeste 32 Oeste 0 974.1 0.8 58
2019-03-14 07:00:00 6 18 Oeste 33 Oeste 0 973.4 -0.4 59
2019-03-14 06:00:00 6.4 27 Oeste 43 Oeste 0 973.4 -0.8 57
2019-03-14 05:00:00 6.3 23 Oeste 44 Oeste 0 973.3 -1.2 58
2019-03-14 04:00:00 6.3 21 Oeste 40 Oeste 0 973.8 -0.1 58
2019-03-14 03:00:00 6.5 21 Oeste 35 Oeste 0 974.2 0.8 57
2019-03-14 02:00:00 6.6 -- -- -- -- -- 974.5 1 57
2019-03-14 01:00:00 7 25 Oeste 45 Oeste 0 973.9 0.6 56
2019-03-14 00:00:00 7 28 Oeste 53 Noroeste 0 973.4 0.5 56
2019-03-13 23:00:00 7.4 32 Noroeste 53 Oeste 0 973.5 1.5 55
2019-03-13 22:00:00 7.8 25 Oeste 43 Oeste 0 973.3 1.9 54
2019-03-13 21:00:00 8.2 23 Oeste 58 Noroeste 0 972.9 2.1 53
2019-03-13 20:00:00 9.4 37 Noroeste 60 Noroeste 0 972 1.6 47
2019-03-13 19:00:00 10.5 37 Noroeste 64 Noroeste 0 971.4 1.3 41
2019-03-13 18:00:00 11.3 39 Noroeste 64 Noroeste 0 970.8 0.7 39
2019-03-13 17:00:00 12.5 40 Noroeste 63 Noroeste 0 970.4 -0.1 33
2019-03-13 16:00:00 12.9 36 Noroeste 63 Noroeste 0 970.1 -0.7 33
2019-03-13 15:00:00 13.1 30 Noroeste 58 Noroeste 0 970.1 -0.4 33
2019-03-13 14:00:00 12.7 35 Noroeste 58 Noroeste 0 970.5 -0.1 34
2019-03-13 13:00:00 12.1 35 Oeste 61 Noroeste 0 970.8 0.2 36
2019-03-13 12:00:00 11.2 36 Noroeste 62 Oeste 0 970.5 1.1 39
2019-03-13 11:00:00 10.1 33 Oeste 54 Noroeste 0 970.6 1.6 44
2019-03-13 10:00:00 8.3 29 Noroeste 55 Oeste 0 970.6 2.1 48
2019-03-13 09:00:00 7.7 29 Oeste 48 Oeste 0 969.4 1.1 48
2019-03-13 08:00:00 7.7 30 Oeste 49 Oeste 0 969 1 55
2019-03-13 07:00:00 8.4 27 Oeste 45 Noroeste 0 968.5 0.6 55
2019-03-13 06:00:00 9.3 19 Oeste 38 Oeste 0 968.3 0.5 54
2019-03-13 05:00:00 9.9 19 Oeste 41 Oeste 0 968 0.4 55
2019-03-13 04:00:00 10.1 15 Oeste 28 Oeste 0 967.9 0.6 60
2019-03-13 03:00:00 10.3 15 Oeste 25 Oeste 0 967.8 0.8 61
2019-03-13 02:00:00 10.7 11 Oeste 20 Sudoeste 0 967.6 1.3 53
2019-03-13 01:00:00 11.1 7 Oeste 14 Oeste 0 967.3 1.6 49
2019-03-13 00:00:00 12.1 8 Noroeste 15 Noroeste 0 967 1.5 46
2019-03-12 23:00:00 13.4 6 Norte 19 Oeste 0 966.3 0.6 43
2019-03-12 22:00:00 12.6 9 Oeste 15 Oeste 0 965.7 0.1 45
2019-03-12 21:00:00 11.5 4 Sudoeste 9 Oeste 0 965.5 -0.6 49
2019-03-12 20:00:00 13.8 3 Oeste 6 Oeste 0 965.7 -1 43
2019-03-12 19:00:00 17.9 3 Sudeste 8 Este 0 965.6 -1.7 30
2019-03-12 18:00:00 19 4 Este 17 Norte 0 966.1 -2 28
2019-03-12 17:00:00 19.4 10 Norte 16 Norte 0 966.7 -2.5 26
2019-03-12 16:00:00 20 8 Norte 15 Norte 0 967.3 -3.1 24
2019-03-12 15:00:00 19.8 6 Nordeste 19 Nordeste 0 968.1 -2.9 25
2019-03-12 14:00:00 18.5 6 Nordeste 18 Nordeste 0 969.2 -2.7 25
2019-03-12 13:00:00 16.7 8 Norte 14 Norte 0 970.4 -2 25
2019-03-12 12:00:00 15.9 6 Este 12 Este 0 971 -1.4 25
2019-03-12 11:00:00 13.8 4 Norte 9 Este 0 971.9 -0.4 26
2019-03-12 10:00:00 11.7 3 Sudoeste 12 Sudoeste 0 972.4 -0.2 28
2019-03-12 09:00:00 8.5 6 Sudoeste 13 Sudoeste 0 972.4 -0.6 34
2019-03-12 08:00:00 5.3 9 Sudoeste 20 Sudoeste 0 972.3 -1 43
2019-03-12 07:00:00 5 14 Sudoeste 18 Sudoeste 0 972.6 -0.9 44
2019-03-12 06:00:00 4.8 13 Sudoeste 20 Sudoeste 0 973 -0.9 47
2019-03-12 05:00:00 5.3 13 Sudoeste 18 Sudoeste 0 973.3 -1.1 47
2019-03-12 04:00:00 6 9 Sudoeste 17 Sur 0 973.5 -1.3 46
2019-03-12 03:00:00 5.8 11 Sudoeste 19 Sudoeste 0 973.9 -1.3 50
2019-03-12 02:00:00 6.2 15 Sudoeste 21 Sudoeste 0 974.4 -0.7 49
2019-03-12 01:00:00 6.5 7 Sur 12 Sur 0 974.8 -0.3 49
2019-03-12 00:00:00 7.6 8 Sudoeste 19 Sudoeste 0 975.2 0.4 45
2019-03-11 23:00:00 8.3 11 Sudoeste 17 Sudoeste 0 975.1 0.9 44
2019-03-11 22:00:00 6.5 3 Sudoeste 12 Sudoeste 0 975.1 1.2 51
2019-03-11 21:00:00 8.5 5 Oeste 12 Noroeste 0 974.8 1.2 43
2019-03-11 20:00:00 11.1 3 Oeste 17 Noroeste 0 974.2 0.5 36
2019-03-11 19:00:00 14.7 10 Noroeste 23 Noroeste 0 973.9 -0.5 27
2019-03-11 18:00:00 16.4 16 Noroeste 27 Noroeste 0 973.6 -0.8 25
2019-03-11 17:00:00 17 15 Noroeste 27 Noroeste 0 973.7 -1.7 27
2019-03-11 16:00:00 16.4 18 Noroeste 33 Noroeste 0 974.4 -1.8 26
2019-03-11 15:00:00 15.8 18 Noroeste 38 Noroeste 0 974.4 -1.5 29
2019-03-11 14:00:00 14.7 22 Noroeste 37 Noroeste 0 975.4 -0.9 32
2019-03-11 13:00:00 14.4 25 Noroeste 39 Noroeste 0 976.2 -0.2 33
2019-03-11 12:00:00 13 28 Noroeste 46 Noroeste 0 975.9 0.4 37
2019-03-11 11:00:00 12.8 24 Noroeste 52 Noroeste 0 976.3 1.5 42
2019-03-11 10:00:00 11.7 27 Noroeste 44 Noroeste 0 976.4 2 44
2019-03-11 09:00:00 10.7 30 Oeste 53 Oeste 0 975.5 1.1 49
2019-03-11 08:00:00 9.9 24 Oeste 52 Oeste 0 974.8 0.9 56
2019-03-11 07:00:00 10.2 26 Oeste 47 Oeste 0 974.4 0.5 59
2019-03-11 06:00:00 10.6 24 Oeste 40 Oeste 0 974.4 0.5 62
2019-03-11 05:00:00 10.9 20 Oeste 37 Oeste 0 973.9 0 61
2019-03-11 04:00:00 11.4 23 Oeste 42 Oeste 0 973.9 0 59
2019-03-11 03:00:00 12.1 19 Oeste 29 Oeste 0 973.9 -0.4 61
2019-03-11 02:00:00 12.4 17 Oeste 32 Oeste 0 973.9 -0.4 60
2019-03-11 01:00:00 13 15 Oeste 31 Oeste 0 973.9 -0.5 57
2019-03-11 00:00:00 13.8 21 Oeste 34 Oeste 0 974.3 0.2 51
2019-03-10 23:00:00 14.1 15 Oeste 27 Oeste 0 974.3 1.1 53
2019-03-10 22:00:00 14.3 12 Oeste 21 Oeste 0 974.4 1.9 54
2019-03-10 21:00:00 14.6 9 Noroeste 22 Noroeste 0 974.1 2 53
2019-03-10 20:00:00 15.6 13 Noroeste 30 Noroeste 0 973.2 1.3 52
2019-03-10 19:00:00 17.1 19 Noroeste 33 Noroeste 0 972.5 0.6 48
2019-03-10 18:00:00 19.2 20 Noroeste 34 Noroeste 0 972.1 0.2 43
2019-03-10 17:00:00 20.6 22 Noroeste 38 Noroeste 0 971.9 -0.6 39
2019-03-10 16:00:00 20.9 22 Noroeste 39 Noroeste 0 971.9 -0.9 37
2019-03-10 15:00:00 21.7 20 Noroeste 34 Norte 0 971.9 -1.6 35
2019-03-10 14:00:00 21.2 18 Norte 31 Norte 0 972.5 -1.9 36
2019-03-10 13:00:00 21 15 Norte 26 Norte 0 972.8 -1.5 37
2019-03-10 12:00:00 20.8 14 Noroeste 27 Oeste 0 973.5 -0.6 33
2019-03-10 11:00:00 19.2 18 Oeste 30 Oeste 0 974.4 0.9 39
2019-03-10 10:00:00 16.8 16 Sudoeste 25 Sudoeste 0 974.3 0.9 46
2019-03-10 09:00:00 12.9 17 Sudoeste 22 Sudoeste 0 974.1 0.9 57
2019-03-10 08:00:00 10.5 13 Sudoeste 20 Sudoeste 0 973.5 0.4 65
2019-03-10 07:00:00 9.5 13 Sudoeste 24 Sudoeste 0 973.4 -0.2 67
2019-03-10 06:00:00 9.9 16 Sudoeste 24 Sudoeste 0 973.2 -0.8 64
2019-03-10 05:00:00 10.2 17 Sudoeste 23 Sudoeste 0 973.1 -1.1 63
2019-03-10 04:00:00 10.2 19 Sudoeste 27 Sudoeste 0 973.6 -1.1 63
2019-03-10 03:00:00 10.6 20 Sudoeste 28 Sudoeste 0 974 -1 62
2019-03-10 02:00:00 11.7 17 Sudoeste 24 Sudoeste 0 974.2 -0.7 57
2019-03-10 01:00:00 11.9 16 Sudoeste 26 Sudoeste 0 974.7 0 55
2019-03-10 00:00:00 11.4 15 Sudoeste 21 Sudoeste 0 975 0.4 57
2019-03-09 23:00:00 10.7 5 Oeste 10 Oeste 0 974.9 0.6 61
2019-03-09 22:00:00 11.3 7 Oeste 11 Oeste 0 974.7 0.7 59
2019-03-09 21:00:00 12.4 7 Oeste 9 Oeste 0 974.6 0.7 54
2019-03-09 20:00:00 14.4 2 Sur 14 Noroeste 0 974.3 0.4 47
2019-03-09 19:00:00 18 7 Noroeste 25 Noroeste 0 974 0 37
2019-03-09 18:00:00 18.9 14 Noroeste 28 Noroeste 0 973.9 -0.6 34
2019-03-09 17:00:00 20.4 14 Noroeste 29 Noroeste 0 973.9 -1.3 31
2019-03-09 16:00:00 20.2 15 Noroeste 30 Norte 0 974 -1.9 33
2019-03-09 15:00:00 19.5 17 Noroeste 32 Noroeste 0 974.5 -1.7 34
2019-03-09 14:00:00 19.3 17 Noroeste 31 Oeste 0 975.2 -1.2 34
2019-03-09 13:00:00 18 16 Noroeste 32 Oeste 0 975.9 0.1 35
2019-03-09 12:00:00 16.8 12 Oeste 28 Norte 0 976.2 1.2 33
2019-03-09 11:00:00 15.7 11 Noroeste 20 Noroeste 0 976.4 2.1 32
2019-03-09 10:00:00 13.5 11 Sudoeste 24 Sudoeste 0 975.8 1.7 43
2019-03-09 09:00:00 9 17 Sudoeste 26 Sudoeste 0 975 1.5 52
2019-03-09 08:00:00 6.6 15 Sudoeste 26 Sudoeste 0 974.3 1 60
2019-03-09 07:00:00 5.6 19 Sudoeste 26 Sudoeste 0 974.1 0.9 65
2019-03-09 06:00:00 5.2 18 Sudoeste 23 Sudoeste 0 973.5 -0.3 68
2019-03-09 05:00:00 5.3 15 Sudoeste 21 Sudoeste 0 973.3 -0.2 67
2019-03-09 04:00:00 6.1 15 Sudoeste 25 Sudoeste 0 973.2 -0.1 65
2019-03-09 03:00:00 6.5 17 Sudoeste 22 Sudoeste 0 973.8 0.8 64
2019-03-09 02:00:00 6.7 12 Sur 21 Sudoeste 0 973.5 1 64
2019-03-09 01:00:00 7.5 17 Sudoeste 22 Sudoeste 0 973.3 1.4 61
2019-03-09 00:00:00 7.7 11 Sudoeste 18 Sudoeste 0 973 2.5 60
2019-03-08 23:00:00 7.8 13 Sudoeste 17 Sudoeste 0 972.5 2.5 60
2019-03-08 22:00:00 7.2 3 Sudoeste 12 Oeste 0 971.9 2.8 62
2019-03-08 21:00:00 8.2 6 Oeste 8 Oeste 0 970.5 2 59
2019-03-08 20:00:00 10.2 4 Sur 13 Norte 0 970 2 53
2019-03-08 19:00:00 13.1 9 Norte 19 Norte 0 969.1 1.3 44
2019-03-08 18:00:00 15 12 Noroeste 24 Noroeste 0 968.5 0.9 35
2019-03-08 17:00:00 15.3 12 Noroeste 23 Noroeste 0 968 0.2 36
2019-03-08 16:00:00 14.4 12 Noroeste 23 Noroeste 0 967.8 -0.2 38
2019-03-08 15:00:00 13.9 12 Noroeste 23 Norte 0 967.6 -0.2 41
2019-03-08 14:00:00 13.6 14 Noroeste 36 Norte 0 967.8 0.6 44
2019-03-08 13:00:00 13.9 15 Noroeste 25 Noroeste 0 968 1.3 40
2019-03-08 12:00:00 13.3 15 Noroeste 28 Noroeste 0 967.8 2.5 42
2019-03-08 11:00:00 12.8 13 Oeste 24 Oeste 0 967.2 3 45
2019-03-08 10:00:00 9.8 9 Sudoeste 19 Sudoeste 0 966.7 3.1 53
2019-03-08 09:00:00 8.6 14 Sudoeste 23 Sudoeste 0 965.3 2.1 55
2019-03-08 08:00:00 6.7 15 Sudoeste 23 Sudoeste 0 964.2 1.3 56
2019-03-08 07:00:00 5.7 17 Sudoeste 24 Sudoeste 0 963.6 0.7 53
2019-03-08 06:00:00 5.2 14 Sudoeste 17 Sudoeste 0 963.2 0.4 53
2019-03-08 05:00:00 5.2 9 Sur 15 Oeste 0 962.9 0.4 53
2019-03-08 04:00:00 6.2 3 Noroeste 24 Sudoeste 0 962.9 0.5 49
2019-03-08 03:00:00 7.8 15 Sudoeste 21 Sudoeste 0 962.8 0.5 42
2019-03-08 02:00:00 8.5 15 Sudoeste 22 Sudoeste 0 962.5 0.5 39
2019-03-08 01:00:00 8.4 15 Sudoeste 25 Sudoeste 0 962.4 1 37
2019-03-08 00:00:00 8.9 17 Sudoeste 25 Sudoeste 0 962.3 1.4 33
2019-03-07 23:00:00 7.4 9 Sur 16 Sudoeste 0 962 1.6 34
2019-03-07 22:00:00 7.8 8 Sudoeste 17 Sudoeste 0 961.4 1.6 34
2019-03-07 21:00:00 6.9 3 Oeste 8 Oeste 0 960.9 1.7 38
2019-03-07 20:00:00 9.8 2 Sur 6 Este 0 960.4 1.2 31
2019-03-07 19:00:00 12.8 5 Nordeste 17 Norte 0 959.8 0.3 23
2019-03-07 18:00:00 14.8 5 Nordeste 16 Norte 0 959.2 -0.6 18
2019-03-07 17:00:00 15.3 8 Nordeste 20 Noroeste 0 959.2 -1.5 20
2019-03-07 16:00:00 14.7 9 Norte 26 Norte 0 959.5 -1.9 21
2019-03-07 15:00:00 15.1 6 Noroeste 27 Oeste 0 959.8 -1.7 26
2019-03-07 14:00:00 14.3 13 Oeste 26 Oeste 0 960.7 -0.6 25
2019-03-07 13:00:00 13.2 12 Noroeste 28 Oeste 0 961.4 0.4 28
2019-03-07 12:00:00 12.4 17 Oeste 36 Oeste 0 961.5 1 33
2019-03-07 11:00:00 11.6 15 Oeste 40 Oeste 0 961.3 1.2 38
2019-03-07 10:00:00 10.2 26 Oeste 39 Oeste 0 961 1.6 40
2019-03-07 09:00:00 10 18 Oeste 35 Oeste 0 960.5 1.8 46
2019-03-07 08:00:00 7.5 3 Este 18 Oeste 0 960.1 2.5 59
2019-03-07 07:00:00 8.7 8 Oeste 23 Oeste 0 959.4 2.4 54
2019-03-07 06:00:00 9.1 4 Oeste 32 Oeste 0 958.7 2.4 52
2019-03-07 05:00:00 9.5 14 Noroeste 40 Oeste 0 957.6 1.1 52
2019-03-07 04:00:00 9.6 19 Oeste 46 Sudoeste 0 957 1 52
2019-03-07 03:00:00 9.7 23 Oeste 41 Oeste 0 956.3 1.1 52
2019-03-07 02:00:00 9.3 14 Oeste 24 Noroeste 0 956.5 2.3 53
2019-03-07 01:00:00 9.9 9 Oeste 23 Oeste 0 956 2.6 47
2019-03-07 00:00:00 10.5 12 Sudoeste 28 Sudoeste 0 955.2 2.6 44
2019-03-06 23:00:00 10.7 9 Oeste 30 Sudoeste 0 954.2 2.2 46
2019-03-06 22:00:00 12.1 14 Oeste 37 Sudoeste 0 953.4 1.6 42
2019-03-06 21:00:00 12 10 Sudoeste 23 Sur 0 952.6 2.8 47
2019-03-06 20:00:00 12.5 12 Sudoeste 45 Sudoeste 0 952 2.8 46
2019-03-06 19:00:00 11.6 27 Sudoeste 71 Oeste 0 951.8 2.3 57
2019-03-06 18:00:00 16.8 35 Sudoeste 58 Sudoeste 0 949.8 0.3 38
2019-03-06 17:00:00 19.1 27 Sur 62 Sudoeste 0 949.2 -1.4 31
2019-03-06 16:00:00 20 35 Sudoeste 53 Sudoeste 0 949.5 -2 28
2019-03-06 15:00:00 19.8 11 Sur 27 Sudoeste 0 949.5 -2.5 27
2019-03-06 14:00:00 18.5 6 Sur 27 Sudeste 0 950.6 -1.9 37
2019-03-06 13:00:00 18.5 10 Sudeste 29 Sudeste 0 951.5 -1.8 37
2019-03-06 12:00:00 18.5 12 Sudeste 36 Sur 0 952 -1.7 37
2019-03-06 11:00:00 17.5 15 Sudeste 45 Sur 0 952.5 -1.6 38
2019-03-06 10:00:00 16.4 23 Sur 46 Sur 0 953.3 -1 43
2019-03-06 09:00:00 15.8 18 Sur 39 Sur 0 953.7 -1.5 45
2019-03-06 08:00:00 14.3 10 Sudeste 33 Sur 0 954.1 -1.5 50
2019-03-06 07:00:00 14.1 21 Sudeste 33 Sudeste 0 954.3 -2.7 49
2019-03-06 06:00:00 13.4 10 Sur 31 Sur 0 955.2 -2.5 50
2019-03-06 05:00:00 13 11 Sur 24 Sur 0 955.6 -2.7 51
2019-03-06 04:00:00 12.2 3 Sur 11 Sudeste 0 957 -1.8 53
2019-03-06 03:00:00 11.7 5 Sudeste 20 Sudoeste 0 957.7 -1.8 57
2019-03-06 02:00:00 10.5 11 Sudoeste 18 Sudoeste 0 958.3 -1.8 65
2019-03-06 01:00:00 10.8 5 Sudeste 10 Sudoeste 0 958.8 -1.2 64
2019-03-06 00:00:00 11.2 7 Sudoeste 12 Sudoeste 0 959.5 -0.5 64
2019-03-05 23:00:00 11.9 9 Sudoeste 17 Sudoeste 0 960.1 0.2 62
2019-03-05 22:00:00 12.1 9 Sur 21 Sur 0 960 0.4 62
2019-03-05 21:00:00 12.9 11 Sur 23 Sur 0 960 0.3 62
2019-03-05 20:00:00 13.7 11 Sudeste 24 Sur 0 959.9 0 58
2019-03-05 19:00:00 15.2 14 Sudeste -- -- 0 959.6 -1 52
2019-03-05 18:00:00 17.3 11 Este 19 Este 0 959.7 -1 37
2019-03-05 17:00:00 18 13 Este 23 Nordeste 0 959.9 -1.7 37
2019-03-05 16:00:00 17.3 5 Sur 21 Noroeste 0 960.6 -1.8 34
2019-03-05 15:00:00 18.1 5 Sudeste 17 Norte 0 960.7 -2 33
2019-03-05 14:00:00 16.8 10 Norte 22 Norte 0 961.6 -1.3 34
2019-03-05 13:00:00 16.5 9 Norte 30 Noroeste 0 962.4 -0.5 36
2019-03-05 12:00:00 16.6 6 Sur 20 Oeste 0 962.7 0.1 34
2019-03-05 11:00:00 14.9 4 Nordeste 13 Sudoeste 0 962.9 0.4 39
2019-03-05 10:00:00 13.5 5 Sur 14 Sudoeste 0 962.9 0.2 43
2019-03-05 09:00:00 10.1 7 Sur 13 Sur 0 962.6 -0.2 53
2019-03-05 08:00:00 9.2 8 Oeste 10 Sudoeste 0 962.5 -0.5 57
2019-03-05 07:00:00 9 5 Sudoeste 9 Sur 0 962.7 -0.7 58
2019-03-05 06:00:00 9.1 5 Sudoeste 10 Sudoeste 0 962.8 -0.8 57
2019-03-05 05:00:00 8.5 2 Sudoeste 8 Sur 0 963 -0.6 58
2019-03-05 04:00:00 9 3 Sur 6 Sudeste 0 963.4 0 55
2019-03-05 03:00:00 10 5 Norte 11 Norte 0 963.6 0.2 50
2019-03-05 02:00:00 9.9 6 Sudeste 11 Sudeste 0 963.6 0.1 51
2019-03-05 01:00:00 10.1 6 Oeste 15 Oeste 0 963.4 0.7 50
2019-03-05 00:00:00 10.7 5 Oeste 11 Oeste 0 963.4 1.2 50
2019-03-04 23:00:00 11.6 2 Sur 14 Oeste 0 963.5 1.8 50
2019-03-04 22:00:00 12.7 8 Oeste 13 Oeste 0 962.7 1.6 46
2019-03-04 21:00:00 14.9 12 Oeste 17 Oeste 0 962.2 1.4 39
2019-03-04 20:00:00 16.2 10 Oeste 25 Oeste 0 961.7 0.9 34
2019-03-04 19:00:00 17.8 9 Oeste 30 Oeste 0 961.1 -0.1 30
2019-03-04 18:00:00 19.4 18 Oeste 33 Oeste 0 960.8 -0.5 27
2019-03-04 17:00:00 20.4 19 Oeste 35 Oeste 0 960.8 -1 28
2019-03-04 16:00:00 20 26 Oeste 44 Oeste 0 961.2 -0.8 28
2019-03-04 15:00:00 20.3 23 Oeste 37 Oeste 0 961.3 -1.3 27
2019-03-04 14:00:00 19.4 14 Noroeste 36 Noroeste 0 961.8 -1.4 33
2019-03-04 13:00:00 20.1 23 Oeste 37 Oeste 0 962 -1.3 30
2019-03-04 12:00:00 19.4 13 Oeste 27 Oeste 0 962.6 -0.3 27
2019-03-04 11:00:00 17.7 14 Oeste 25 Oeste 0 963.2 1 25
2019-03-04 10:00:00 15.2 9 Oeste 14 Oeste 0 963.3 1.7 30
2019-03-04 09:00:00 11.9 6 Sudoeste 12 Oeste 0 962.9 1.3 43
2019-03-04 08:00:00 11.9 8 Sudoeste 21 Noroeste 0 962.2 0.5 45
2019-03-04 07:00:00 12 6 Sur 14 Sudoeste 0 961.6 -0.9 45
2019-03-04 06:00:00 13.9 13 Sudoeste 20 Sudoeste 0 961.6 -1.6 40
2019-03-04 05:00:00 11 6 Sudoeste 19 Oeste 0 961.7 -1.2 48
2019-03-04 04:00:00 13.8 10 Sudoeste 14 Sudoeste 0 962.5 -0.2 37
2019-03-04 03:00:00 12.5 3 Noroeste 13 Norte 0 963.2 0.3 37
2019-03-04 02:00:00 12.2 5 Norte 19 Sudoeste 0 962.9 -0.5 37
2019-03-04 01:00:00 11.8 4 Oeste 17 Sudoeste 0 962.7 -0.9 38
2019-03-04 00:00:00 11 3 Sudoeste 6 Sudoeste 0 962.9 -0.3 44
2019-03-03 23:00:00 14 3 Norte 19 Sudoeste 0 963.4 1.1 33
2019-03-03 22:00:00 15.5 13 Oeste 18 Sudoeste 0 963.6 1.2 29
2019-03-03 21:00:00 15.3 4 Sudoeste 17 Oeste 0 963.2 0.4 38
2019-03-03 20:00:00 16.3 11 Oeste 14 Oeste 0 962.3 -1.4 34
2019-03-03 19:00:00 18.8 5 Oeste 14 Norte 0 962.4 -2.2 31
2019-03-03 18:00:00 22.3 8 Norte 15 Norte 0 962.8 -2.8 21
2019-03-03 17:00:00 22.1 9 Norte 14 Norte 0 963.7 -2.7 22
2019-03-03 16:00:00 22.3 5 Nordeste 16 Norte 0 964.6 -2.7 19
2019-03-03 15:00:00 22 9 Norte 20 Norte 0 965.6 -2.3 20
2019-03-03 14:00:00 22.1 6 Nordeste 12 Nordeste 0 966.4 -1.9 20
2019-03-03 13:00:00 21.3 6 Este 11 Nordeste 0 967.3 -1.3 21
2019-03-03 12:00:00 19.2 4 Noroeste 9 Norte 0 967.9 -0.4 22
2019-03-03 11:00:00 17.2 4 Sur 12 Sudoeste 0 968.3 0.5 29
2019-03-03 10:00:00 14.4 8 Sudoeste 12 Sudoeste 0 968.6 1.5 33
2019-03-03 09:00:00 11.7 9 Sudoeste 15 Sudoeste 0 968.3 1.1 40
2019-03-03 08:00:00 9.1 8 Oeste 19 Sur 0 967.8 0.4 44
2019-03-03 07:00:00 11.1 14 Sudoeste 21 Sudoeste 0 967.1 -1 38
2019-03-03 06:00:00 10.8 17 Sudoeste 29 Sudoeste 0 967.2 -1.7 40
2019-03-03 05:00:00 10.7 15 Sudoeste 26 Sudoeste 0 967.4 -1.8 42
2019-03-03 04:00:00 9.6 12 Sudoeste 22 Sudoeste 0 968.1 -1.5 44
2019-03-03 03:00:00 10.3 15 Sudoeste 21 Sudoeste 0 968.9 -0.7 43
2019-03-03 02:00:00 10.9 13 Sudoeste 21 Sudoeste 0 969.2 -0.4 44
2019-03-03 01:00:00 9.9 7 Sudoeste 14 Sudoeste 0 969.6 0.2 49
2019-03-03 00:00:00 11.7 6 Sur 15 Sudoeste 0 969.6 0.7 44
2019-03-02 23:00:00 12.3 8 Sudoeste 18 Oeste 0 969.6 1.3 41
2019-03-02 22:00:00 13.8 13 Oeste 24 Oeste 0 969.4 1.4 39
2019-03-02 21:00:00 14.6 19 Oeste 30 Oeste 0 968.9 1.1 34
2019-03-02 20:00:00 15.4 20 Oeste 31 Oeste 0 968.3 0.4 34
2019-03-02 19:00:00 16.9 15 Noroeste 33 Noroeste 0 968 0.1 31
2019-03-02 18:00:00 18.5 23 Noroeste 38 Noroeste 0 967.8 -0.4 28
2019-03-02 17:00:00 19.5 21 Noroeste 45 Noroeste 0 967.9 -1.1 25
2019-03-02 16:00:00 20 23 Noroeste 39 Noroeste 0 967.9 -2 15
2019-03-02 15:00:00 19.2 26 Noroeste 39 Noroeste 0 968.2 -2.3 22
2019-03-02 14:00:00 18.7 22 Noroeste 38 Oeste 0 969 -1.5 23
2019-03-02 13:00:00 17.4 25 Noroeste 42 Noroeste 0 969.9 -0.1 30
2019-03-02 12:00:00 15.7 25 Noroeste 48 Oeste 0 970.5 1 40
2019-03-02 11:00:00 15.2 29 Noroeste 46 Noroeste 0 970.5 1.8 45
2019-03-02 10:00:00 14.1 18 Oeste 37 Oeste 0 970 1.7 48
2019-03-02 09:00:00 11.4 13 Sudoeste 24 Sudoeste 0 969.5 0.8 52
2019-03-02 08:00:00 11 14 Sudoeste 28 Sudoeste 0 968.7 -0.1 49
2019-03-02 07:00:00 10.6 17 Sudoeste 28 Oeste 0 968.3 -0.6 49
2019-03-02 06:00:00 9.8 15 Sudoeste 30 Sudoeste 0 968.7 -0.3 50
2019-03-02 05:00:00 10.6 14 Sudoeste 27 Oeste 0 968.8 -0.1 48
2019-03-02 04:00:00 10.5 18 Oeste 28 Oeste 0 968.9 0.1 47
2019-03-02 03:00:00 10.2 14 Oeste 27 Sudoeste 0 969 0.4 50
2019-03-02 02:00:00 10.6 14 Sudoeste 22 Sudoeste 0 968.9 0.5 50
2019-03-02 01:00:00 10.5 14 Sudoeste 23 Sudoeste 0 968.8 0.8 48
2019-03-02 00:00:00 10.3 10 Sudoeste 20 Sudoeste 0 968.6 1 48
2019-03-01 23:00:00 10.4 10 Sudoeste 17 Sudoeste 0 968.4 1.4 48
2019-03-01 22:00:00 10.6 8 Sudoeste 13 Sudoeste 0 968 1.4 43
2019-03-01 21:00:00 9.9 8 Sudoeste 13 Oeste 0 967.6 1.3 47
2019-03-01 20:00:00 10.9 7 Oeste 12 Oeste 0 967 0.4 38
2019-03-01 19:00:00 16 5 Norte 19 Norte 0 966.6 -0.4 25
2019-03-01 18:00:00 18 14 Noroeste 27 Noroeste 0 966.3 -1.3 19
2019-03-01 17:00:00 18.8 14 Noroeste 26 Noroeste 0 966.6 -2.1 17
2019-03-01 16:00:00 18.2 9 Norte 22 Norte 0 967 -2.5 24
2019-03-01 15:00:00 17.1 8 Noroeste 21 Norte 0 967.6 -2.4 24
2019-03-01 14:00:00 16.3 7 Noroeste 19 Este 0 968.7 -1.7 29
2019-03-01 13:00:00 14.7 11 Norte 21 Norte 0 969.5 -1.2 33
2019-03-01 12:00:00 14.4 12 Noroeste 22 Noroeste 0 970 -1 34
2019-03-01 11:00:00 14.1 5 Sudoeste 17 Noroeste 0 970.4 -0.3 32
2019-03-01 10:00:00 12.1 8 Sudoeste 18 Sudoeste 0 970.7 0.1 36
2019-03-01 09:00:00 8.8 14 Sudoeste 18 Sudoeste 0 971 0.5 43
2019-03-01 08:00:00 7.2 14 Sudoeste 18 Sudoeste 0 970.7 0.3 46
2019-03-01 07:00:00 7.1 11 Sudoeste 19 Sudoeste 0 970.6 -0.4 46
2019-03-01 06:00:00 7 14 Sudoeste 20 Sudoeste 0 970.5 -0.9 45
2019-03-01 05:00:00 7.2 11 Sudoeste 17 Sudoeste 0 970.4 -1.2 42
2019-03-01 04:00:00 6.4 10 Oeste 15 Oeste 0 971 -0.8 50
2019-03-01 03:00:00 7 10 Sudoeste 18 Sudoeste 0 971.4 -0.2 54
2019-03-01 02:00:00 7.9 6 Sudoeste 18 Oeste 0 971.6 -0.3 54
2019-03-01 01:00:00 9.2 10 Sudoeste 15 Sudoeste 0 971.8 -0.1 53
2019-03-01 00:00:00 9.7 8 Oeste 16 Sudoeste 0 971.6 -0.1 51
2019-02-28 23:00:00 11.3 11 Sudoeste 17 Oeste 0 971.9 0.3 50
2019-02-28 22:00:00 11.1 8 Sudoeste 17 Noroeste 0 971.9 1 48
2019-02-28 21:00:00 13.6 14 Noroeste 21 Noroeste 0 971.7 0.8 37
2019-02-28 20:00:00 13.7 8 Oeste 17 Noroeste 0 971.6 0.8 42
2019-02-28 19:00:00 15.5 11 Noroeste 23 Norte 0 970.9 -0.3 39
2019-02-28 18:00:00 18 18 Noroeste 31 Noroeste 0 970.9 -0.9 30
2019-02-28 17:00:00 19.3 14 Noroeste 29 Noroeste 0 970.8 -1.8 26
2019-02-28 16:00:00 19.8 14 Noroeste 33 Noroeste 0 971.2 -2 24
2019-02-28 15:00:00 19.4 16 Noroeste 33 Noroeste 0 971.8 -1.6 26
2019-02-28 14:00:00 18.9 22 Noroeste 33 Noroeste 0 972.6 -0.9 27
2019-02-28 13:00:00 18.3 14 Noroeste 23 Oeste 0 973.2 -0.6 28
2019-02-28 12:00:00 16.3 8 Noroeste 14 Noroeste 0 973.4 -0.3 33
2019-02-28 11:00:00 15.1 4 Norte 8 Nordeste 0 973.5 0.4 33
2019-02-28 10:00:00 13.1 4 Sudeste 7 Este 0 973.8 1.3 39
2019-02-28 09:00:00 10.8 3 Sudeste 9 Nordeste 0 973.7 1.8 47
2019-02-28 08:00:00 9.4 4 Oeste 15 Sudoeste 0 973.1 1.6 47
2019-02-28 07:00:00 11.3 9 Sudoeste 21 Sudoeste 0 972.5 1.3 42
2019-02-28 06:00:00 12 16 Sudoeste 26 Sudoeste 0 971.9 0.6 39
2019-02-28 05:00:00 11.6 14 Sudoeste 24 Sudoeste 0 971.5 0.4 34
2019-02-28 04:00:00 12.3 18 Sudoeste 23 Sudoeste 0 971.2 0.2 27
2019-02-28 03:00:00 13.1 16 Sudoeste 26 Sudoeste 0 971.3 0.6 26
2019-02-28 02:00:00 12.2 22 Sudoeste 28 Sudoeste 0 971.1 0.6 31
2019-02-28 01:00:00 12.7 18 Sudoeste 32 Sudoeste 0 971 0.7 32
2019-02-28 00:00:00 12.9 18 Sudoeste 27 Sudoeste 0 970.7 0.3 32
2019-02-27 23:00:00 12.9 21 Sudoeste 26 Sudoeste 0 970.5 0.2 33
2019-02-27 22:00:00 13.6 13 Sudoeste 22 Sudoeste 0 970.3 0.4 33
2019-02-27 21:00:00 13.4 12 Sudoeste 17 Sudoeste 0 970.4 0.8 35
2019-02-27 20:00:00 13.4 3 Sudoeste 10 Oeste 0 970.3 0.4 35
2019-02-27 19:00:00 18 5 Noroeste 9 Norte 0 969.9 -0.2 28
2019-02-27 18:00:00 21.6 7 Norte 13 Norte 0 969.6 -1.1 18
2019-02-27 17:00:00 22.2 8 Norte 16 Nordeste 0 969.9 -1.9 15
2019-02-27 16:00:00 22.6 6 Nordeste 13 Nordeste 0 970.1 -2.4 16
2019-02-27 15:00:00 22.4 5 Nordeste 14 Sudeste 0 970.7 -2.1 17
2019-02-27 14:00:00 21 7 Norte 13 Norte 0 971.8 -1.5 19
2019-02-27 13:00:00 20.6 5 Nordeste 14 Este 0 972.5 -0.7 19
2019-02-27 12:00:00 20.4 6 Sudeste 15 Sur 0 972.8 -0.3 20
2019-02-27 11:00:00 16 11 Sudoeste 18 Sudoeste 0 973.3 0.5 24
2019-02-27 10:00:00 12.8 10 Sur 22 Sudoeste 0 973.2 0.5 27
2019-02-27 09:00:00 9.1 17 Sudoeste 26 Sudoeste 0 973.1 0.5 34
2019-02-27 08:00:00 7.3 20 Sudoeste 26 Sudoeste 0 972.8 0.2 40
2019-02-27 07:00:00 6.7 20 Sudoeste 25 Sudoeste 0 972.7 -0.2 44
2019-02-27 06:00:00 6.9 16 Sudoeste 21 Sudoeste 0 972.6 -0.9 46
2019-02-27 05:00:00 7.2 18 Sudoeste 25 Sudoeste 0 972.6 -0.7 45
2019-02-27 04:00:00 8 14 Sudoeste 21 Sudoeste 0 972.9 -0.6 46
2019-02-27 03:00:00 8.8 14 Sudoeste 23 Sudoeste 0 973.5 -0.2 46
2019-02-27 02:00:00 9.6 16 Sudoeste 22 Sudoeste 0 973.3 -0.5 45
2019-02-27 01:00:00 10.1 12 Sudoeste 20 Sudoeste 0 973.5 -0.5 45
2019-02-27 00:00:00 10.6 15 Sudoeste 23 Sudoeste 0 973.7 -0.3 44
2019-02-26 23:00:00 11.6 15 Sudoeste 20 Sudoeste 0 973.8 -0.2 41
2019-02-26 22:00:00 10.4 13 Sudoeste 17 Sudoeste 0 974 0 45
2019-02-26 21:00:00 10.6 4 Oeste 12 Oeste 0 974 0.4 45
2019-02-26 20:00:00 12.3 4 Sudoeste 7 Sudoeste 0 974 0.4 41
2019-02-26 19:00:00 16.5 4 Noroeste 11 Norte 0 974 0.3 30
2019-02-26 18:00:00 19 8 Nordeste 13 Nordeste 0 973.6 -0.5 23
2019-02-26 17:00:00 20.1 6 Nordeste 14 Norte 0 973.6 -1.3 21
2019-02-26 16:00:00 19.8 9 Nordeste 17 Norte 0 973.7 -1.7 23
2019-02-26 15:00:00 19.1 9 Norte 17 Norte 0 974.1 -1.6 32
2019-02-26 14:00:00 17.7 8 Norte 15 Norte 0 974.9 -1.3 32
2019-02-26 13:00:00 16.9 7 Norte 14 Norte 0 975.4 -1.1 36
2019-02-26 12:00:00 16.4 4 Nordeste 8 Este 0 975.7 -0.4 34
2019-02-26 11:00:00 14.4 4 Sur 14 Sur 0 976.2 0.9 43
2019-02-26 10:00:00 11.1 8 Sur 16 Sudoeste 0 976.5 1.4 51
2019-02-26 09:00:00 8.3 11 Sudoeste 20 Sudoeste 0 976.1 1 58
2019-02-26 08:00:00 5.9 13 Sudoeste 18 Sudoeste 0 975.3 0.4 69
2019-02-26 07:00:00 6.2 10 Sudoeste 17 Sudoeste 0 975.1 0 68
2019-02-26 06:00:00 6.2 9 Sudoeste 19 Sudoeste 0 975.1 -0.3 69
2019-02-26 05:00:00 6.6 15 Sudoeste 22 Sudoeste 0 974.9 -0.5 69
2019-02-26 04:00:00 7 17 Sudoeste 22 Sudoeste 0 975.1 -0.3 68
2019-02-26 03:00:00 7.2 15 Sudoeste 21 Sudoeste 0 975.4 0.2 68
2019-02-26 02:00:00 7.8 15 Sudoeste 20 Sudoeste 0 975.4 0.3 66
2019-02-26 01:00:00 8.5 11 Sudoeste 18 Sudoeste 0 975.4 0.1 63
2019-02-26 00:00:00 9.1 10 Sudoeste 19 Sudoeste 0 975.2 0.1 61
2019-02-25 23:00:00 9.2 12 Sudoeste 17 Sudoeste 0 975.1 0.2 61
2019-02-25 22:00:00 8.9 8 Oeste 12 Oeste 0 975.3 0.6 61
2019-02-25 21:00:00 9.6 5 Oeste 10 Oeste 0 975.1 0.4 57
2019-02-25 20:00:00 11.2 10 Oeste 12 Oeste 0 974.9 0.2 53
2019-02-25 19:00:00 15 6 Oeste 8 Noroeste 0 974.7 -0.1 42
2019-02-25 18:00:00 17.5 6 Norte 13 Norte 0 974.7 0 34
2019-02-25 17:00:00 17.4 8 Norte 20 Norte 0 974.7 -0.7 33
2019-02-25 16:00:00 17.2 11 Norte 22 Noroeste 0 974.8 -1.6 35
2019-02-25 15:00:00 17.2 12 Norte 20 Norte 0 974.7 -2.4 40
2019-02-25 14:00:00 16.6 9 Norte 18 Nordeste 0 975.4 -2 37
2019-02-25 13:00:00 15.9 10 Norte 16 Norte 0 976.4 -1 35
2019-02-25 12:00:00 16.4 6 Sur 14 Sudeste 0 977.1 0 33
2019-02-25 11:00:00 13.6 6 Sudeste 15 Sudoeste 0 977.4 0.6 39
2019-02-25 10:00:00 10.6 11 Sur 22 Sudoeste 0 977.4 0.7 47
2019-02-25 09:00:00 7.2 15 Sudoeste 22 Sudoeste 0 977.1 0.3 59
2019-02-25 08:00:00 5.6 13 Sudoeste 20 Sudoeste 0 976.8 0.1 67
2019-02-25 07:00:00 5.6 14 Sudoeste 22 Sudoeste 0 976.7 -0.3 71
2019-02-25 06:00:00 6 15 Sudoeste 21 Sudoeste 0 976.8 -0.2 71
2019-02-25 05:00:00 6.2 12 Sudoeste 19 Sudoeste 0 976.7 -0.4 70
2019-02-25 04:00:00 6.7 14 Sudoeste 20 Sudoeste 0 977 -0.3 71
2019-02-25 03:00:00 7.1 14 Sudoeste 22 Sudoeste 0 977 -0.3 66
2019-02-25 02:00:00 7.7 15 Sudoeste 22 Sudoeste 0 977.1 -0.3 65
2019-02-25 01:00:00 7.8 14 Sudoeste 22 Sudoeste 0 977.3 0.1 64
2019-02-25 00:00:00 9.1 10 Sudoeste 21 Sudoeste 0 977.3 0.5 62
2019-02-24 23:00:00 9.4 12 Sudoeste 18 Sudoeste 0 977.4 0.9 60
2019-02-24 22:00:00 9.3 7 Sudoeste 13 Sudoeste 0 977.2 1.2 58
2019-02-24 21:00:00 9.7 7 Oeste 9 Oeste 0 976.8 1.2 51
2019-02-24 20:00:00 10.9 6 Oeste 9 Oeste 0 976.5 0.8 48
2019-02-24 19:00:00 14.8 5 Norte 11 Norte 0 976 0.1 37
2019-02-24 18:00:00 16.6 7 Norte 14 Norte 0 975.6 -0.6 32
2019-02-24 17:00:00 17.1 8 Nordeste 20 Norte 0 975.7 -0.9 32
2019-02-24 16:00:00 17 8 Norte 18 Norte 0 975.9 -1.3 32
2019-02-24 15:00:00 16.3 9 Norte 18 Nordeste 0 976.2 -0.9 31
2019-02-24 14:00:00 15.8 9 Nordeste 17 Nordeste 0 976.6 -0.5 31
2019-02-24 13:00:00 14.9 10 Norte 17 Norte 0 977.2 0.4 33
2019-02-24 12:00:00 14.7 4 Norte 8 Sudeste 0 977.1 0.8 30
2019-02-24 11:00:00 13.5 4 Sudeste 12 Sur 0 977.1 1.6 35
2019-02-24 10:00:00 10.5 6 Sudoeste 15 Sudoeste 0 976.8 1.6 42
2019-02-24 09:00:00 7.5 7 Sudoeste 16 Sudoeste 0 976.3 1.3 51
2019-02-24 08:00:00 5.9 11 Sudoeste 14 Sudoeste 0 975.5 0.8 54
2019-02-24 07:00:00 6.4 10 Sudoeste 13 Sudoeste 0 975.2 0.6 52
2019-02-24 06:00:00 6.6 8 Sur 13 Sudoeste 0 975 0.4 51
2019-02-24 05:00:00 7.7 4 Sur 17 Sudoeste 0 974.7 0.5 47
2019-02-24 04:00:00 9.4 13 Sudoeste 20 Sudoeste 0 974.6 0.9 42
2019-02-24 03:00:00 9.1 9 Sudoeste 15 Sudoeste 0 974.6 1.3 41
2019-02-24 02:00:00 10.4 12 Sudoeste 18 Sudoeste 0 974.2 1.2 38
2019-02-24 01:00:00 9.9 10 Sudoeste 15 Sudoeste 0 973.7 1.2 42
2019-02-24 00:00:00 11.1 9 Sudoeste 15 Sudoeste 0 973.3 1.4 38
2019-02-23 23:00:00 12 10 Sudoeste 17 Sudoeste 0 973 1.8 35
2019-02-23 22:00:00 12.7 12 Sudoeste 18 Sudoeste 0 972.5 2 34
2019-02-23 21:00:00 12.4 7 Oeste 14 Oeste 0 971.9 1.4 34
2019-02-23 20:00:00 12.5 9 Oeste 15 Oeste 0 971.2 0.6 34
2019-02-23 19:00:00 15.3 3 Sudoeste 13 Norte 0 970.5 -0.4 30
2019-02-23 18:00:00 19.7 11 Norte 25 Noroeste 0 970.5 -0.8 20
2019-02-23 17:00:00 20.9 15 Noroeste 30 Noroeste 0 970.6 -1.5 14
2019-02-23 16:00:00 21 18 Noroeste 29 Noroeste 0 970.9 -1.8 14
2019-02-23 15:00:00 19.8 12 Noroeste 20 Noroeste 0 971.3 -1.8 18
2019-02-23 14:00:00 18.6 10 Norte 23 Nordeste 0 972.1 -1.2 18
2019-02-23 13:00:00 18.3 6 Nordeste 12 Norte 0 972.7 -0.6 19
2019-02-23 12:00:00 17.9 5 Noroeste 13 Sudoeste 0 973.1 0 21
2019-02-23 11:00:00 16.6 8 Sudoeste 18 Sudoeste 0 973.3 0.6 22
2019-02-23 10:00:00 12.7 14 Sudoeste 20 Sudoeste 0 973.3 0.7 27
2019-02-23 09:00:00 9.6 15 Sudoeste 25 Sudoeste 0 973.1 0.4 31
2019-02-23 08:00:00 8 18 Sudoeste 25 Sudoeste 0 972.7 0.1 35
2019-02-23 07:00:00 8.1 19 Sudoeste 24 Sudoeste 0 972.6 -0.1 37
2019-02-23 06:00:00 8.6 16 Sudoeste 29 Sudoeste 0 972.7 -0.3 35
2019-02-23 05:00:00 8.8 20 Sudoeste 29 Sudoeste 0 972.6 -0.6 36
2019-02-23 04:00:00 8.8 21 Sudoeste -- -- -- 972.7 -0.6 35
2019-02-23 03:00:00 9.3 24 Sudoeste 32 Sudoeste 0 973 -0.3 34
2019-02-23 02:00:00 9.7 18 Sudoeste 29 Sudoeste 0 973.2 -0.3 34
2019-02-23 01:00:00 10.5 22 Sudoeste 27 Sudoeste 0 973.3 0.2 34
2019-02-23 00:00:00 10.8 14 Sudoeste 28 Sudoeste 0 973.3 0.2 32
2019-02-22 23:00:00 10.7 12 Sudoeste 18 Sudoeste 0 973.5 0.5 34
2019-02-22 22:00:00 10.7 8 Sudoeste 14 Sudoeste 0 973.1 0.3 42
2019-02-22 21:00:00 11.1 8 Sudoeste 14 Sudoeste 0 973.1 0.3 47
2019-02-22 20:00:00 11 6 Oeste 7 Oeste 0 973 0.2 48
2019-02-22 19:00:00 15.2 3 Oeste 10 Norte 0 972.8 -0.1 36
2019-02-22 18:00:00 18.5 8 Norte 13 Norte 0 972.8 -0.6 27
2019-02-22 17:00:00 19.2 9 Norte 18 Nordeste 0 972.8 -1.4 25
2019-02-22 16:00:00 19.5 9 Norte 18 Norte 0 972.9 -2.2 25
2019-02-22 15:00:00 19 6 Nordeste 17 Noroeste 0 973.4 -2.1 29
2019-02-22 14:00:00 18.1 9 Norte 15 Norte 0 974.2 -1.8 30
2019-02-22 13:00:00 17.2 6 Norte 14 Norte 0 975.1 -1.5 30
2019-02-22 12:00:00 17.5 4 Sudeste 13 Sudoeste 0 975.5 -0.9 31
2019-02-22 11:00:00 13.8 6 Sur 18 Sudoeste 0 976 0.2 36
2019-02-22 10:00:00 10.6 9 Sur 25 Sudoeste 0 976.6 1 45
2019-02-22 09:00:00 7 16 Sudoeste 25 Sudoeste 0 976.4 0.7 54
2019-02-22 08:00:00 5.6 16 Sudoeste 21 Sudoeste 0 975.8 -0.2 59
2019-02-22 07:00:00 5.7 12 Sudoeste 21 Sudoeste 0 975.6 -0.2 60
2019-02-22 06:00:00 5.5 13 Sudoeste 19 Sudoeste 0 975.7 -0.3 61
2019-02-22 05:00:00 5.9 15 Sudoeste 27 Sudoeste 0 976 0.1 58
2019-02-22 04:00:00 6.2 16 Sudoeste 26 Sudoeste 0 975.8 -0.2 60
2019-02-22 03:00:00 6.8 13 Sudoeste 24 Sudoeste 0 976 0.3 59
2019-02-22 02:00:00 6.9 14 Sudoeste 21 Sudoeste 0 975.9 0.1 60
2019-02-22 01:00:00 7.3 17 Sudoeste 25 Sudoeste 0 976 0.6 59
2019-02-22 00:00:00 8.8 15 Sudoeste 20 Sudoeste 0 975.7 1 56
2019-02-21 23:00:00 8.3 13 Sudoeste 20 Sudoeste 0 975.8 1.5 57
2019-02-21 22:00:00 7.8 10 Sudoeste 17 Sudoeste 0 975.4 1.6 60
2019-02-21 21:00:00 7.1 3 Oeste 8 Oeste 0 974.7 1.3 61
2019-02-21 20:00:00 9.5 6 Oeste 9 Oeste 0 974.3 1 53
2019-02-21 19:00:00 12.9 2 Oeste 13 Norte 0 973.8 0.7 42
2019-02-21 18:00:00 15.3 8 Norte 13 Norte 0 973.4 0.2 33
2019-02-21 17:00:00 16.3 6 Nordeste 18 Norte 0 973.3 -0.2 32
2019-02-21 16:00:00 16.3 9 Norte 15 Norte 0 973.1 -1 38
2019-02-21 15:00:00 15.8 7 Norte 17 Nordeste 0 973.2 -1 38
2019-02-21 14:00:00 14.4 6 Nordeste 13 Nordeste 0 973.5 -0.5 44
2019-02-21 13:00:00 13 6 Norte 12 Nordeste 0 974.1 0.2 46
2019-02-21 12:00:00 12.4 4 Norte 9 Norte 0 974.2 0.7 45
2019-02-21 11:00:00 11.5 4 Sur 10 Sur 0 974 1.3 45
2019-02-21 10:00:00 8.7 4 Sur 13 Sur 0 973.9 1.6 53
2019-02-21 09:00:00 5.1 8 Sudoeste 16 Sudoeste 0 973.5 1.4 67
2019-02-21 08:00:00 3.5 14 Sudoeste 22 Sudoeste 0 972.7 0.9 76
2019-02-21 07:00:00 3.7 15 Sudoeste 18 Sudoeste 0 972.3 0.5 73
2019-02-21 06:00:00 3.9 13 Sudoeste 18 Sudoeste 0 972.1 0.1 74
2019-02-21 05:00:00 4.2 12 Sudoeste 17 Sudoeste 0 971.8 0.3 73
2019-02-21 04:00:00 4.6 13 Sudoeste 19 Sudoeste 0 971.8 0.6 79
2019-02-21 03:00:00 4.8 8 Sudoeste 14 Sudoeste 0 972 1.1 77
2019-02-21 02:00:00 5.5 11 Sudoeste 18 Sudoeste 0 971.5 0.8 72
2019-02-21 01:00:00 5.7 14 Sudoeste 19 Sudoeste 0 971.2 0.7 71
2019-02-21 00:00:00 6.3 9 Sudoeste 17 Sudoeste 0 970.9 0.9 73
2019-02-20 23:00:00 6.2 12 Sudoeste 16 Sudoeste 0 970.7 1 69
2019-02-20 22:00:00 6 6 Sur 12 Oeste 0 970.5 1.4 73
2019-02-20 21:00:00 7.3 2 Sudoeste 13 Oeste 0 970 1.2 66
2019-02-20 20:00:00 8.5 6 Oeste 9 Oeste 0 969.7 1.1 62
2019-02-20 19:00:00 11.7 6 Norte 10 Norte 0 969.1 0.3 51
2019-02-20 18:00:00 13.9 5 Norte 13 Nordeste 0 968.8 -0.2 39
2019-02-20 17:00:00 14.6 6 Norte 13 Norte 0 968.6 -0.7 40
2019-02-20 16:00:00 14.3 7 Norte 13 Norte 0 968.8 -1.1 40
2019-02-20 15:00:00 13.6 5 Norte 12 Norte 0 969 -0.9 45
2019-02-20 14:00:00 12.3 5 Norte 12 Nordeste 0 969.3 -0.2 51
2019-02-20 13:00:00 10.6 6 Norte 13 Norte 0 969.9 0.8 60
2019-02-20 12:00:00 10 5 Norte 12 Nordeste 0 969.9 1.4 60
2019-02-20 11:00:00 9.6 3 Este 9 Sur 0 969.5 1.7 59
2019-02-20 10:00:00 6.9 5 Sur 13 Sudoeste 0 969.1 1.9 69
2019-02-20 09:00:00 3.9 8 Sudoeste 13 Sudoeste 0 968.5 1.2 80
2019-02-20 08:00:00 2.5 8 Sudoeste 16 Sudoeste 0 967.8 0.7 84
2019-02-20 07:00:00 2.8 10 Sudoeste 14 Sudoeste 0 967.2 0 83
2019-02-20 06:00:00 3.3 9 Sudoeste 14 Sudoeste 0 967.3 0 84
2019-02-20 05:00:00 3.9 10 Sudoeste 15 Sudoeste 0 967.1 -0.1 82
2019-02-20 04:00:00 3.6 8 Oeste 11 Sudoeste 0 967.2 0.4 85
2019-02-20 03:00:00 3.5 3 Sur 6 Sudoeste 0 967.3 0.6 87
2019-02-20 02:00:00 5.4 3 Norte 14 Sur 0 967.2 0.7 81
2019-02-20 01:00:00 7.6 10 Sur 20 Sudeste 0 966.8 0.4 76
2019-02-20 00:00:00 7.9 11 Sudoeste 21 Sur 0 966.7 0.6 76